Map

Track Data

SID SEASON NUMBER BASIN SUBBASIN NAME ISO_TIME NATURE LAT LON WMO_WIND WMO_PRES WMO_AGENCY TRACK_TYPE DIST2LAND LANDFALL IFLAG USA_AGENCY USA_ATCF_ID USA_LAT USA_LON USA_RECORD USA_STATUS USA_WIND USA_PRES USA_SSHS USA_R34_NE USA_R34_SE USA_R34_SW USA_R34_NW USA_R50_NE USA_R50_SE USA_R50_SW USA_R50_NW USA_R64_NE USA_R64_SE USA_R64_SW USA_R64_NW USA_POCI USA_ROCI USA_RMW USA_EYE TOKYO_LAT TOKYO_LON TOKYO_GRADE TOKYO_WIND TOKYO_PRES TOKYO_R50_DIR TOKYO_R50_LONG TOKYO_R50_SHORT TOKYO_R30_DIR TOKYO_R30_LONG TOKYO_R30_SHORT TOKYO_LAND CMA_LAT CMA_LON CMA_CAT CMA_WIND CMA_PRES HKO_LAT HKO_LON HKO_CAT HKO_WIND HKO_PRES NEWDELHI_LAT NEWDELHI_LON NEWDELHI_GRADE NEWDELHI_WIND NEWDELHI_PRES NEWDELHI_CI NEWDELHI_DP NEWDELHI_POCI REUNION_LAT REUNION_LON REUNION_TYPE REUNION_WIND REUNION_PRES REUNION_TNUM REUNION_CI REUNION_RMW REUNION_R34_NE REUNION_R34_SE REUNION_R34_SW REUNION_R34_NW REUNION_R50_NE REUNION_R50_SE REUNION_R50_SW REUNION_R50_NW REUNION_R64_NE REUNION_R64_SE REUNION_R64_SW REUNION_R64_NW BOM_LAT BOM_LON BOM_TYPE BOM_WIND BOM_PRES BOM_TNUM BOM_CI BOM_RMW BOM_R34_NE BOM_R34_SE BOM_R34_SW BOM_R34_NW BOM_R50_NE BOM_R50_SE BOM_R50_SW BOM_R50_NW BOM_R64_NE BOM_R64_SE BOM_R64_SW BOM_R64_NW BOM_ROCI BOM_POCI BOM_EYE BOM_POS_METHOD BOM_PRES_METHOD NADI_LAT NADI_LON NADI_CAT NADI_WIND NADI_PRES WELLINGTON_LAT WELLINGTON_LON WELLINGTON_WIND WELLINGTON_PRES DS824_LAT DS824_LON DS824_STAGE DS824_WIND DS824_PRES TD9636_LAT TD9636_LON TD9636_STAGE TD9636_WIND TD9636_PRES TD9635_LAT TD9635_LON TD9635_WIND TD9635_PRES TD9635_ROCI NEUMANN_LAT NEUMANN_LON NEUMANN_CLASS NEUMANN_WIND NEUMANN_PRES MLC_LAT MLC_LON MLC_CLASS MLC_WIND MLC_PRES USA_GUST BOM_GUST BOM_GUST_PER REUNION_GUST REUNION_GUST_PER USA_SEAHGT USA_SEARAD_NE USA_SEARAD_SE USA_SEARAD_SW USA_SEARAD_NW STORM_SPEED STORM_DIR
1953002S17122 1953 1 SI WA NOT_NAMED 1953-01-01 23:00:00 NR -17.0000 122.000 main 33 33 __________O___ -1 -17.0000 122.000 7 1 0
1953002S17122 1953 1 SI WA NOT_NAMED 1953-01-02 00:00:00 TS -17.0047 122.012 main 33 33 O________OP___ jtwc_sh SH041953 -17.0000 122.000 -1 -17.0000 122.000 TC -17.0094 122.023 7 1 100
1953002S17122 1953 1 SI WA NOT_NAMED 1953-01-02 01:00:00 TS -17.0069 122.037 1002 bom main 33 24 P_____O__PP___ SH041953 -17.0000 122.039 -1 -17.0000 122.000 1002 -17.0000 122.039 TC -17.0184 122.047 7 2 95
1953002S17122 1953 1 SI WA NOT_NAMED 1953-01-02 03:00:00 TS -17.0112 122.094 main 24 15 P_____P__PP___ SH041953 -17.0000 122.113 -1 -17.0000 122.042 -17.0000 122.113 TC -17.0336 122.094 7 2 92
1953002S17122 1953 1 SI WA NOT_NAMED 1953-01-02 06:00:00 TS -17.0117 122.172 main 15 15 O_____P__OP___ jtwc_sh SH041953 -17.0000 122.200 -1 -17.0001 122.104 -17.0000 122.200 TC -17.0436 122.167 7 1 88
1953002S17122 1953 1 SI WA NOT_NAMED 1953-01-02 09:00:00 TS -17.0072 122.228 main 15 11 P_____P__PP___ SH041953 -17.0000 122.250 -1 -17.0001 122.167 -17.0000 122.250 TC -17.0289 122.245 7 1 82
1953002S17122 1953 1 SI WA NOT_NAMED 1953-01-02 11:00:00 TS -17.0000 122.267 main 11 11 P_____P__PO___ SH041953 -17.0000 122.280 -1 -17.0001 122.208 -17.0000 122.280 TC -17.0000 122.300 7 1 77
1953002S17122 1953 1 SI WA NOT_NAMED 1953-01-02 12:00:00 TS -16.9948 122.290 main 11 10 O_____P__OP___ jtwc_sh SH041953 -17.0000 122.300 -1 -17.0002 122.229 -17.0000 122.300 TC -16.9791 122.329 7 2 77
1953002S17122 1953 1 SI WA NOT_NAMED 1953-01-02 15:00:00 TS -16.9770 122.374 main 10 0 P_____P__PP___ SH041953 -17.0000 122.393 -1 -17.0001 122.292 -17.0000 122.393 TC -16.9076 122.420 7 2 81
1953002S17122 1953 1 SI WA NOT_NAMED 1953-01-02 18:00:00 TS -16.9662 122.468 main 0 0 O_____P__OP___ jtwc_sh SH041953 -17.0000 122.500 -1 -17.0001 122.354 -17.0000 122.500 TC -16.8646 122.519 7 2 81
1953002S17122 1953 1 SI WA NOT_NAMED 1953-01-02 21:00:00 TS -16.9495 122.557 main 0 0 P_____P__PP___ SH041953 -16.9475 122.593 -1 -17.0001 122.417 -16.9475 122.593 TC -16.9029 122.625 7 2 96
1953002S17122 1953 1 SI WA NOT_NAMED 1953-01-02 23:00:00 TS -16.9800 122.620 main 0 0 P_____P__PO___ SH041953 -16.9600 122.661 -1 -17.0000 122.458 -16.9600 122.661 TC -17.0000 122.700 7 2 128
1953002S17122 1953 1 SI WA NOT_NAMED 1953-01-03 00:00:00 TS -17.0176 122.647 main 0 0 O_____P__OP___ jtwc_sh SH041953 -17.0000 122.700 -1 -17.0000 122.479 -17.0000 122.700 TC -17.0749 122.745 7 4 150
1953002S17122 1953 1 SI WA NOT_NAMED 1953-01-03 01:00:00 TS -17.0826 122.677 1000 bom main 0 0 P_____O__PP___ SH041953 -17.0636 122.747 -1 -17.0000 122.500 1000 -17.0636 122.747 TC -17.1654 122.793 7 7 163
1953002S17122 1953 1 SI WA NOT_NAMED 1953-01-03 03:00:00 TS -17.3365 122.748 main 0 0 P_____P__PP___ SH041953 -17.2600 122.850 -1 -17.3332 122.541 -17.2600 122.850 TC -17.3891 122.891 7 9 167
1953002S17122 1953 1 SI WA NOT_NAMED 1953-01-03 06:00:00 TS -17.7998 122.851 main 0 0 O_____P__OP___ jtwc_sh SH041953 -17.7000 123.000 -1 -17.8332 122.602 -17.7000 123.000 TC -17.8157 123.032 7 10 169
1953002S17122 1953 1 SI WA NOT_NAMED 1953-01-03 09:00:00 TS -18.3220 122.948 main 0 0 P_____P__PP___ SH041953 -18.2625 123.122 -1 -18.3334 122.664 -18.2625 123.122 TC -18.3265 123.148 7 11 171
1953002S17122 1953 1 SI WA NOT_NAMED 1953-01-03 11:00:00 TS -18.6965 122.999 main 0 0 P_____P__PO___ SH041953 -18.6869 123.181 -1 -18.6668 122.705 -18.6869 123.181 TC -18.7000 123.200 7 11 175
1953002S17122 1953 1 SI WA NOT_NAMED 1953-01-03 12:00:00 TS -18.8839 122.998 main 0 0 O_____P__OP___ jtwc_sh SH041953 -18.9000 123.200 -1 -18.8336 122.726 -18.9000 123.200 TC -18.8936 123.216 7 11 0
1953002S17122 1953 1 SI WA NOT_NAMED 1953-01-03 15:00:00 TS -19.4295 123.011 main 0 0 P_____P__PP___ SH041953 -19.5125 123.218 -1 -19.3338 122.789 -19.5125 123.218 TC -19.4961 123.229 7 11 181
1953002S17122 1953 1 SI WA NOT_NAMED 1953-01-03 18:00:00 TS -19.9468 122.992 main 0 0 O_____P__OP___ jtwc_sh SH041953 -20.1000 123.200 -1 -19.8339 122.852 -20.1000 123.200 TC -20.1238 123.200 7 10 182
1953002S17122 1953 1 SI WA NOT_NAMED 1953-01-03 21:00:00 TS -20.4273 122.973 main 0 0 ______P___P___ SH041953 -1 -20.3338 122.915 TC -20.7671 123.144 7 10 0
1953002S17122 1953 1 SI WA NOT_NAMED 1953-01-03 23:00:00 TS -20.7474 122.988 main 0 0 ______P___O___ SH041953 -1 -20.6670 122.957 TC -21.2000 123.100 7 8 177
1953002S17122 1953 1 SI WA NOT_NAMED 1953-01-04 00:00:00 TS -20.8223 122.986 main 0 0 ______P_______ -1 -20.8335 122.979 7 8 176
1953002S17122 1953 1 SI WA NOT_NAMED 1953-01-04 01:00:00 NR -21.0000 123.000 1000 bom main 0 ______O_______ -1 -21.0000 123.000 1000 7 11 0

About IBTrACS Database

This database is a web-friendly format of International Best Track Archive for Climate Stewardship (IBTrACS), a global best track data archive curated by NOAA dating back to 1842.

Updated: 2021-11-26